createdAt,value
2019-05-03T00:00:32.253Z,1002.85
2019-05-03T00:01:32.431Z,1002.90
2019-05-03T00:02:32.412Z,1002.89
2019-05-03T00:03:33.155Z,1002.91
2019-05-03T00:04:32.108Z,1002.88
2019-05-03T00:05:32.578Z,1002.88
2019-05-03T00:06:32.137Z,1002.90
2019-05-03T00:07:32.034Z,1002.86
2019-05-03T00:08:33.353Z,1002.90
2019-05-03T00:09:32.035Z,1002.94
2019-05-03T00:10:31.951Z,1002.90
2019-05-03T00:11:32.675Z,1002.89
2019-05-03T00:12:32.739Z,1002.93
2019-05-03T00:13:32.554Z,1002.91
2019-05-03T00:14:32.509Z,1002.91
2019-05-03T00:15:32.335Z,1002.92
2019-05-03T00:16:32.539Z,1002.92
2019-05-03T00:17:38.445Z,1002.91
2019-05-03T00:18:32.762Z,1002.92
2019-05-03T00:19:32.777Z,1002.97
2019-05-03T00:20:32.616Z,1002.91
2019-05-03T00:21:32.703Z,1002.94
2019-05-03T00:22:32.348Z,1002.94
2019-05-03T00:23:32.460Z,1002.96
2019-05-03T00:24:32.128Z,1002.96
2019-05-03T00:25:32.625Z,1002.95
2019-05-03T00:26:31.850Z,1002.95
2019-05-03T00:27:32.287Z,1002.94
2019-05-03T00:28:32.224Z,1002.95
2019-05-03T00:29:32.559Z,1002.93
2019-05-03T00:30:31.974Z,1002.96
2019-05-03T00:31:33.341Z,1002.96
2019-05-03T00:32:32.063Z,1002.94
2019-05-03T00:33:32.292Z,1002.93
2019-05-03T00:34:32.419Z,1002.99
2019-05-03T00:35:31.951Z,1002.97
2019-05-03T00:36:32.851Z,1003.00
2019-05-03T00:37:32.754Z,1002.98
2019-05-03T00:38:32.505Z,1002.99
2019-05-03T00:39:32.496Z,1002.98
2019-05-03T00:40:32.358Z,1003.00
2019-05-03T00:41:32.027Z,1003.01
2019-05-03T00:42:31.788Z,1003.00
2019-05-03T00:43:37.993Z,1002.96
2019-05-03T00:44:31.703Z,1002.95
2019-05-03T00:45:31.613Z,1002.96
2019-05-03T00:46:32.624Z,1002.92
2019-05-03T00:47:32.715Z,1002.93
2019-05-03T00:48:32.558Z,1002.93
2019-05-03T00:49:32.119Z,1002.94
2019-05-03T00:50:32.051Z,1002.95
2019-05-03T00:51:31.831Z,1002.96
2019-05-03T00:52:31.804Z,1002.90
2019-05-03T00:53:31.783Z,1002.93
2019-05-03T00:54:31.665Z,1002.92
2019-05-03T00:55:32.620Z,1002.93
2019-05-03T00:56:32.158Z,1002.90
2019-05-03T00:57:32.262Z,1002.95
2019-05-03T00:58:31.816Z,1002.90
2019-05-03T00:59:32.490Z,1002.91
2019-05-03T01:00:32.187Z,1002.87
2019-05-03T01:01:32.456Z,1002.87
2019-05-03T01:02:31.857Z,1002.89
2019-05-03T01:03:32.407Z,1002.80
2019-05-03T01:04:31.773Z,1002.87
2019-05-03T01:05:30.335Z,1002.85
2019-05-03T01:06:31.853Z,1002.83
2019-05-03T01:07:31.873Z,1002.85
2019-05-03T01:08:30.227Z,1002.82
2019-05-03T01:09:31.710Z,1002.85
2019-05-03T01:10:30.179Z,1002.81
2019-05-03T01:11:32.407Z,1002.86
2019-05-03T01:12:32.188Z,1002.87
2019-05-03T01:13:32.082Z,1002.88
2019-05-03T01:14:31.687Z,1002.87
2019-05-03T01:15:31.936Z,1002.84
2019-05-03T01:16:31.517Z,1002.85
2019-05-03T01:17:31.694Z,1002.86
2019-05-03T01:18:29.936Z,1002.86
2019-05-03T01:19:32.044Z,1002.88
2019-05-03T01:20:31.876Z,1002.92
2019-05-03T01:21:31.637Z,1002.95
2019-05-03T01:22:31.982Z,1002.91
2019-05-03T01:23:29.849Z,1002.95
2019-05-03T01:24:29.777Z,1002.95
2019-05-03T01:25:34.622Z,1003.04
2019-05-03T01:26:31.822Z,1003.03
2019-05-03T01:27:29.689Z,1003.00
2019-05-03T01:28:29.657Z,1003.07
2019-05-03T01:29:29.650Z,1003.06
2019-05-03T01:30:29.612Z,1003.01
2019-05-03T01:31:29.663Z,1003.06
2019-05-03T01:32:29.557Z,1003.08
2019-05-03T01:33:32.138Z,1003.04
2019-05-03T01:34:29.510Z,1003.05
2019-05-03T01:35:29.500Z,1003.02
2019-05-03T01:36:29.451Z,1003.03
2019-05-03T01:37:35.991Z,1003.06
2019-05-03T01:38:29.389Z,1002.95
2019-05-03T01:39:29.352Z,1003.05
2019-05-03T01:40:29.340Z,1002.97
2019-05-03T01:41:35.991Z,1003.04
2019-05-03T01:42:29.268Z,1003.00
2019-05-03T01:43:31.767Z,1002.98
2019-05-03T01:44:29.197Z,1002.95
2019-05-03T01:45:29.172Z,1002.95
2019-05-03T01:46:29.148Z,1002.98
2019-05-03T01:47:29.115Z,1002.96
2019-05-03T01:48:29.088Z,1002.94
2019-05-03T01:49:32.080Z,1002.95
2019-05-03T01:50:29.029Z,1002.95
2019-05-03T01:51:30.008Z,1003.01
2019-05-03T01:52:28.960Z,1003.02
2019-05-03T01:53:28.935Z,1003.01
2019-05-03T01:54:28.938Z,1003.10
2019-05-03T01:55:28.879Z,1003.04
2019-05-03T01:56:28.858Z,1003.06
2019-05-03T01:57:28.826Z,1003.06
2019-05-03T01:58:28.793Z,1003.09
2019-05-03T01:59:28.760Z,1003.03
2019-05-03T02:00:28.741Z,1003.10
2019-05-03T02:01:28.694Z,1003.09
2019-05-03T02:02:28.664Z,1003.10
2019-05-03T02:03:28.665Z,1003.13
2019-05-03T02:04:28.622Z,1003.12
2019-05-03T02:05:28.596Z,1003.15
2019-05-03T02:06:28.561Z,1003.14
2019-05-03T02:07:28.534Z,1003.22
2019-05-03T02:08:28.487Z,1003.18
2019-05-03T02:09:35.018Z,1003.20
2019-05-03T02:10:28.439Z,1003.16
2019-05-03T02:11:28.417Z,1003.20
2019-05-03T02:12:28.399Z,1003.23
2019-05-03T02:13:29.360Z,1003.16
2019-05-03T02:14:28.313Z,1003.19
2019-05-03T02:15:28.291Z,1003.20
2019-05-03T02:16:28.249Z,1003.20
2019-05-03T02:17:28.270Z,1003.22
2019-05-03T02:18:28.194Z,1003.21
2019-05-03T02:19:29.192Z,1003.21
2019-05-03T02:20:28.234Z,1003.22
2019-05-03T02:21:28.137Z,1003.26
2019-05-03T02:22:28.079Z,1003.28
2019-05-03T02:23:28.060Z,1003.30
2019-05-03T02:24:28.048Z,1003.26
2019-05-03T02:25:28.129Z,1003.31
2019-05-03T02:26:27.970Z,1003.35
2019-05-03T02:27:29.984Z,1003.34
2019-05-03T02:28:27.912Z,1003.32
2019-05-03T02:29:28.868Z,1003.34
2019-05-03T02:30:27.854Z,1003.33
2019-05-03T02:31:27.855Z,1003.40
2019-05-03T02:32:27.809Z,1003.35
2019-05-03T02:33:27.775Z,1003.39
2019-05-03T02:34:27.730Z,1003.37
2019-05-03T02:35:27.694Z,1003.38
2019-05-03T02:36:27.674Z,1003.38
2019-05-03T02:37:27.654Z,1003.43
2019-05-03T02:38:43.097Z,1003.43
2019-05-03T02:39:27.631Z,1003.45
2019-05-03T02:40:28.555Z,1003.42
2019-05-03T02:41:27.523Z,1003.42
2019-05-03T03:08:26.275Z,1003.53
2019-05-03T03:09:19.575Z,1003.58
2019-05-03T03:10:18.540Z,1003.52
2019-05-03T03:11:45.637Z,1003.50
2019-05-03T03:12:18.484Z,1003.52
2019-05-03T03:13:20.464Z,1003.50
2019-05-03T03:14:18.422Z,1003.55
2019-05-03T03:15:26.308Z,1003.59
2019-05-03T03:16:20.707Z,1003.53
2019-05-03T03:17:20.336Z,1003.55
2019-05-03T03:18:18.303Z,1003.55
2019-05-03T03:19:20.299Z,1003.58
2019-05-03T03:20:18.241Z,1003.59
2019-05-03T03:21:26.101Z,1003.63
2019-05-03T03:22:18.186Z,1003.67
2019-05-03T03:29:40.544Z,1003.66
2019-05-03T03:30:08.787Z,1003.66
2019-05-03T03:31:08.859Z,1003.63
2019-05-03T03:32:09.942Z,1003.64
2019-05-03T03:33:09.435Z,1003.67
2019-05-03T03:34:08.852Z,1003.62
2019-05-03T03:35:11.609Z,1003.63
2019-05-03T03:36:37.962Z,1003.59
2019-05-03T03:37:10.301Z,1003.66
2019-05-03T03:38:10.555Z,1003.66
2019-05-03T03:39:08.528Z,1003.68
2019-05-03T03:40:17.052Z,1003.67
2019-05-03T03:41:08.462Z,1003.65
2019-05-03T03:42:38.039Z,1003.69
2019-05-03T03:43:08.497Z,1003.67
2019-05-03T03:44:15.400Z,1003.72
2019-05-03T03:45:08.365Z,1003.71
2019-05-03T03:46:08.329Z,1003.74
2019-05-03T03:47:08.273Z,1003.76
2019-05-03T03:48:16.040Z,1003.75
2019-05-03T03:49:08.215Z,1003.77
2019-05-03T03:50:35.620Z,1003.78
2019-05-03T03:51:08.156Z,1003.75
2019-05-03T03:52:37.048Z,1003.81
2019-05-03T03:53:08.110Z,1003.78
2019-05-03T03:54:08.080Z,1003.80
2019-05-03T03:55:26.395Z,1003.85
2019-05-03T03:56:08.005Z,1003.82
2019-05-03T03:57:08.403Z,1003.85
2019-05-03T03:58:07.978Z,1003.85
2019-05-03T03:59:07.943Z,1003.87
2019-05-03T04:00:07.928Z,1003.87
2019-05-03T04:01:07.883Z,1003.91
2019-05-03T04:02:07.877Z,1003.92
2019-05-03T04:03:07.804Z,1004.01
2019-05-03T04:04:07.785Z,1004.02
2019-05-03T04:05:07.743Z,1004.00
2019-05-03T04:06:07.730Z,1004.04
2019-05-03T04:07:07.707Z,1004.04
2019-05-03T04:08:09.716Z,1004.05
2019-05-03T04:09:07.631Z,1004.13
2019-05-03T04:10:07.601Z,1004.08
2019-05-03T04:11:07.603Z,1004.07
2019-05-03T04:12:07.551Z,1004.13
2019-05-03T04:13:07.514Z,1004.11
2019-05-03T04:14:07.485Z,1004.08
2019-05-03T04:15:07.469Z,1004.10
2019-05-03T04:16:07.444Z,1004.12
2019-05-03T04:17:08.405Z,1004.15
2019-05-03T04:18:07.364Z,1004.12
2019-05-03T04:19:07.374Z,1004.16
2019-05-03T04:20:07.312Z,1004.16
2019-05-03T04:21:08.289Z,1004.17
2019-05-03T04:22:07.251Z,1004.23
2019-05-03T04:23:07.246Z,1004.22
2019-05-03T04:24:07.199Z,1004.19
2019-05-03T04:25:08.161Z,1004.24
2019-05-03T04:26:07.217Z,1004.24
2019-05-03T04:27:18.704Z,1004.18
2019-05-03T04:28:07.065Z,1004.22
2019-05-03T04:29:07.042Z,1004.22
2019-05-03T04:30:07.053Z,1004.18
2019-05-03T04:31:06.982Z,1004.23
2019-05-03T04:32:06.955Z,1004.24
2019-05-03T04:33:06.933Z,1004.23
2019-05-03T04:34:06.899Z,1004.25
2019-05-03T04:35:06.906Z,1004.28
2019-05-03T04:36:06.848Z,1004.28
2019-05-03T04:37:16.069Z,1004.32
2019-05-03T04:38:06.819Z,1004.38
2019-05-03T04:39:06.773Z,1004.35
2019-05-03T04:40:06.747Z,1004.39
2019-05-03T04:41:07.722Z,1004.43
2019-05-03T04:42:07.105Z,1004.37
2019-05-03T04:43:06.654Z,1004.38
2019-05-03T04:44:06.684Z,1004.42
2019-05-03T04:45:06.596Z,1004.39
2019-05-03T04:46:06.928Z,1004.38
2019-05-03T04:47:07.197Z,1004.41
2019-05-03T04:48:06.508Z,1004.40
2019-05-03T04:49:07.512Z,1004.45
2019-05-03T04:50:06.428Z,1004.45
2019-05-03T04:51:06.429Z,1004.45
2019-05-03T04:52:06.389Z,1004.46
2019-05-03T04:53:06.343Z,1004.48
2019-05-03T04:54:06.307Z,1004.50
2019-05-03T04:55:07.294Z,1004.53
2019-05-03T04:56:06.283Z,1004.53
2019-05-03T04:57:06.716Z,1004.53
2019-05-03T04:58:06.189Z,1004.52
2019-05-03T04:59:06.163Z,1004.53
2019-05-03T05:00:10.595Z,1004.49
2019-05-03T05:01:06.420Z,1004.52
2019-05-03T05:02:06.326Z,1004.57
2019-05-03T05:03:06.267Z,1004.57
2019-05-03T05:04:05.988Z,1004.58
2019-05-03T05:05:06.223Z,1004.62
2019-05-03T05:06:06.511Z,1004.64
2019-05-03T05:07:06.346Z,1004.65
2019-05-03T05:08:06.190Z,1004.68
2019-05-03T05:09:05.891Z,1004.74
2019-05-03T05:10:05.874Z,1004.72
2019-05-03T05:11:09.954Z,1004.73
2019-05-03T05:12:06.006Z,1004.78
2019-05-03T05:13:05.798Z,1004.77
2019-05-03T05:14:06.362Z,1004.78
2019-05-03T05:15:05.689Z,1004.82
2019-05-03T05:16:06.123Z,1004.78
2019-05-03T05:17:06.314Z,1004.83
2019-05-03T05:18:06.049Z,1004.81
2019-05-03T05:19:05.885Z,1004.84
2019-05-03T05:20:05.524Z,1004.89
2019-05-03T05:21:05.533Z,1004.85
2019-05-03T05:22:05.973Z,1004.88
2019-05-03T05:23:05.443Z,1004.90
2019-05-03T05:24:05.752Z,1004.92
2019-05-03T05:25:06.378Z,1004.94
2019-05-03T05:26:05.600Z,1004.97
2019-05-03T05:27:05.406Z,1005.00
2019-05-03T05:28:05.271Z,1004.97
2019-05-03T05:29:05.359Z,1004.93
2019-05-03T05:30:05.215Z,1004.97
2019-05-03T05:31:05.214Z,1004.97
2019-05-03T05:32:05.351Z,1004.95
2019-05-03T05:33:05.422Z,1004.98
2019-05-03T05:34:06.286Z,1005.01
2019-05-03T05:35:05.227Z,1005.02
2019-05-03T05:36:05.052Z,1005.02
2019-05-03T05:37:05.373Z,1005.00
2019-05-03T05:38:04.985Z,1005.02
2019-05-03T05:39:05.261Z,1005.03
2019-05-03T05:40:05.308Z,1005.03
2019-05-03T05:41:05.374Z,1005.03
2019-05-03T05:42:04.851Z,1005.02
2019-05-03T05:43:05.101Z,1005.03
2019-05-03T05:44:05.424Z,1005.04
2019-05-03T05:45:12.713Z,1005.07
2019-05-03T05:46:05.366Z,1005.06
2019-05-03T05:47:04.806Z,1005.03
2019-05-03T05:48:05.151Z,1005.04
2019-05-03T05:49:04.729Z,1005.03
2019-05-03T05:50:05.023Z,1005.01
2019-05-03T05:51:04.665Z,1005.04
2019-05-03T05:52:05.003Z,1005.07
2019-05-03T05:53:05.045Z,1005.04
2019-05-03T05:54:05.224Z,1005.09
2019-05-03T05:55:06.560Z,1005.07
2019-05-03T05:56:05.043Z,1005.08
2019-05-03T05:57:19.144Z,1005.04
2019-05-03T05:58:07.523Z,1005.05
2019-05-03T05:59:05.435Z,1005.06
2019-05-03T06:00:04.948Z,1005.11
2019-05-03T06:01:05.506Z,1005.09
2019-05-03T06:02:04.855Z,1005.05
2019-05-03T06:03:05.132Z,1005.09
2019-05-03T06:04:05.375Z,1005.07
2019-05-03T06:05:04.837Z,1005.01
2019-05-03T06:06:05.342Z,1005.01
2019-05-03T06:07:04.596Z,1005.06
2019-05-03T06:08:04.812Z,1005.07
2019-05-03T06:09:05.126Z,1005.10
2019-05-03T06:10:05.260Z,1005.12
2019-05-03T06:11:04.542Z,1005.14
2019-05-03T06:12:04.534Z,1005.08
2019-05-03T06:13:05.058Z,1005.07
2019-05-03T06:14:05.017Z,1005.10
2019-05-03T06:15:04.924Z,1005.11
2019-05-03T06:16:05.149Z,1005.17
2019-05-03T06:17:05.466Z,1005.15
2019-05-03T06:18:05.661Z,1005.15
2019-05-03T06:19:10.655Z,1005.15
2019-05-03T06:20:05.312Z,1005.14
2019-05-03T06:21:05.840Z,1005.15
2019-05-03T06:22:05.123Z,1005.19
2019-05-03T06:23:05.281Z,1005.15
2019-05-03T06:24:04.455Z,1005.14
2019-05-03T06:25:06.433Z,1005.18
2019-05-03T06:26:04.976Z,1005.17
2019-05-03T06:27:05.622Z,1005.17
2019-05-03T06:28:16.931Z,1005.21
2019-05-03T06:29:11.185Z,1005.25
2019-05-03T06:30:04.708Z,1005.19
2019-05-03T06:31:04.848Z,1005.20
2019-05-03T06:32:05.285Z,1005.22
2019-05-03T06:33:05.338Z,1005.21
2019-05-03T06:34:04.541Z,1005.26
2019-05-03T06:35:04.942Z,1005.27
2019-05-03T06:36:04.950Z,1005.26
2019-05-03T06:37:10.184Z,1005.27
2019-05-03T06:38:04.927Z,1005.22
2019-05-03T06:39:08.132Z,1005.24
2019-05-03T06:40:06.028Z,1005.35
2019-05-03T06:41:04.696Z,1005.28
2019-05-03T06:42:05.079Z,1005.24
2019-05-03T06:43:11.168Z,1005.23
2019-05-03T06:44:04.331Z,1005.25
2019-05-03T06:45:08.274Z,1005.22
2019-05-03T06:46:05.140Z,1005.21
2019-05-03T06:47:08.794Z,1005.23
2019-05-03T06:48:02.901Z,1005.24
2019-05-03T06:49:06.581Z,1005.21
2019-05-03T06:50:02.868Z,1005.17
2019-05-03T06:51:09.268Z,1005.15
2019-05-03T06:52:02.822Z,1005.20
2019-05-03T06:53:13.022Z,1005.21
2019-05-03T06:54:04.952Z,1005.14
2019-05-03T06:55:06.403Z,1005.19
2019-05-03T06:56:04.029Z,1005.19
2019-05-03T06:57:05.747Z,1005.24
2019-05-03T06:58:02.650Z,1005.24
2019-05-03T06:59:02.617Z,1005.22
2019-05-03T07:00:02.547Z,1005.30
2019-05-03T07:01:04.532Z,1005.30
2019-05-03T07:02:05.492Z,1005.34
2019-05-03T07:03:02.442Z,1005.24
2019-05-03T07:04:05.117Z,1005.26
2019-05-03T07:05:02.352Z,1005.24
2019-05-03T07:06:04.441Z,1005.22
2019-05-03T07:07:05.113Z,1005.27
2019-05-03T07:08:02.277Z,1005.31
2019-05-03T07:09:02.220Z,1005.29
2019-05-03T07:10:05.053Z,1005.29
2019-05-03T07:11:02.212Z,1005.30
2019-05-03T07:12:04.378Z,1005.31
2019-05-03T07:13:02.144Z,1005.30
2019-05-03T07:14:05.124Z,1005.33
2019-05-03T07:15:02.101Z,1005.35
2019-05-03T07:16:04.671Z,1005.31
2019-05-03T07:17:01.991Z,1005.37
2019-05-03T07:18:02.057Z,1005.39
2019-05-03T07:19:01.986Z,1005.35
2019-05-03T07:20:09.645Z,1005.40
2019-05-03T07:21:01.864Z,1005.42
2019-05-03T07:22:01.876Z,1005.40
2019-05-03T07:23:01.801Z,1005.39
2019-05-03T07:24:01.906Z,1005.41
2019-05-03T07:25:01.758Z,1005.37
2019-05-03T07:26:02.824Z,1005.40
2019-05-03T07:27:01.699Z,1005.35
2019-05-03T07:28:04.434Z,1005.40
2019-05-03T07:29:01.645Z,1005.33
2019-05-03T07:30:01.641Z,1005.32
2019-05-03T07:31:01.578Z,1005.34
2019-05-03T07:32:01.661Z,1005.39
2019-05-03T07:33:01.514Z,1005.34
2019-05-03T07:34:01.591Z,1005.43
2019-05-03T07:35:01.449Z,1005.29
2019-05-03T07:36:05.347Z,1005.32
2019-05-03T07:37:01.383Z,1005.28
2019-05-03T07:38:01.375Z,1005.30
2019-05-03T07:39:01.310Z,1005.28
2019-05-03T07:40:01.406Z,1005.29
2019-05-03T07:41:01.390Z,1005.32
2019-05-03T07:42:01.317Z,1005.26
2019-05-03T07:43:01.196Z,1005.20
2019-05-03T07:44:01.209Z,1005.26
2019-05-03T07:45:01.140Z,1005.21
2019-05-03T07:46:01.154Z,1005.24
2019-05-03T07:47:01.073Z,1005.25
2019-05-03T07:48:01.043Z,1005.26
2019-05-03T07:49:02.164Z,1005.26
2019-05-03T07:50:00.991Z,1005.30
2019-05-03T07:51:01.034Z,1005.29
2019-05-03T07:52:00.923Z,1005.35
2019-05-03T07:53:00.886Z,1005.31
2019-05-03T07:54:00.864Z,1005.32
2019-05-03T07:55:01.014Z,1005.33
2019-05-03T07:56:00.814Z,1005.32
2019-05-03T07:57:00.821Z,1005.33
2019-05-03T07:58:00.733Z,1005.34
2019-05-03T07:59:09.706Z,1005.33
2019-05-03T08:00:00.687Z,1005.43
2019-05-03T08:01:06.436Z,1005.34
2019-05-03T08:02:00.621Z,1005.36
2019-05-03T08:03:00.646Z,1005.33
2019-05-03T08:04:00.559Z,1005.29
2019-05-03T08:05:02.622Z,1005.25
2019-05-03T08:06:00.494Z,1005.29
2019-05-03T08:07:01.588Z,1005.29
2019-05-03T08:08:00.420Z,1005.31
2019-05-03T08:09:00.416Z,1005.30
2019-05-03T08:10:00.373Z,1005.31
2019-05-03T08:11:00.343Z,1005.36
2019-05-03T08:12:00.439Z,1005.39
2019-05-03T08:13:00.324Z,1005.35
2019-05-03T08:14:00.273Z,1005.35
2019-05-03T08:15:00.422Z,1005.32
2019-05-03T08:16:00.202Z,1005.24
2019-05-03T08:17:01.362Z,1005.37
2019-05-03T08:18:00.149Z,1005.36
2019-05-03T08:19:00.238Z,1005.37
2019-05-03T08:20:00.133Z,1005.37
2019-05-03T08:21:00.077Z,1005.38
2019-05-03T08:22:00.043Z,1005.35
2019-05-03T08:23:00.154Z,1005.43
2019-05-03T08:23:59.955Z,1005.38
2019-05-03T08:25:00.063Z,1005.41
2019-05-03T08:25:59.926Z,1005.37
2019-05-03T08:27:02.125Z,1005.43
2019-05-03T08:27:59.832Z,1005.44
2019-05-03T08:29:12.666Z,1005.44
2019-05-03T08:29:59.818Z,1005.45
2019-05-03T08:31:01.863Z,1005.49
2019-05-03T08:31:59.710Z,1005.38
2019-05-03T08:33:00.847Z,1005.43
2019-05-03T08:33:59.651Z,1005.36
2019-05-03T08:35:00.669Z,1005.38
2019-05-03T08:35:59.596Z,1005.38
2019-05-03T08:36:59.755Z,1005.41
2019-05-03T08:37:59.522Z,1005.37
2019-05-03T08:38:59.644Z,1005.38
2019-05-03T08:39:59.472Z,1005.38
2019-05-03T08:41:14.560Z,1005.40
2019-05-03T08:41:59.437Z,1005.39
2019-05-03T08:43:00.517Z,1005.43
2019-05-03T08:43:59.345Z,1005.39
2019-05-03T08:44:59.493Z,1005.35
2019-05-03T08:45:59.312Z,1005.36
2019-05-03T08:47:01.463Z,1005.39
2019-05-03T08:47:59.245Z,1005.38
2019-05-03T08:49:07.314Z,1005.41
2019-05-03T08:49:59.157Z,1005.32
2019-05-03T08:51:01.310Z,1005.27
2019-05-03T08:51:59.137Z,1005.27
2019-05-03T08:52:59.286Z,1005.30
2019-05-03T08:53:59.051Z,1005.31
2019-05-03T08:54:59.429Z,1005.36
2019-05-03T08:55:59.002Z,1005.40
2019-05-03T08:57:00.044Z,1005.30
2019-05-03T08:57:58.951Z,1005.34
2019-05-03T08:58:59.106Z,1005.37
2019-05-03T08:59:58.894Z,1005.38
2019-05-03T09:00:58.841Z,1005.36
2019-05-03T09:02:02.813Z,1005.32
2019-05-03T09:02:58.794Z,1005.37
2019-05-03T09:03:58.878Z,1005.38
2019-05-03T09:04:58.716Z,1005.32
2019-05-03T09:05:58.767Z,1005.37
2019-05-03T09:06:58.663Z,1005.40
2019-05-03T09:07:58.813Z,1005.37
2019-05-03T09:08:58.588Z,1005.38
2019-05-03T09:09:58.670Z,1005.35
2019-05-03T09:10:58.546Z,1005.34
2019-05-03T09:11:58.527Z,1005.30
2019-05-03T09:12:58.483Z,1005.38
2019-05-03T09:13:58.492Z,1005.32
2019-05-03T09:14:58.420Z,1005.28
2019-05-03T09:16:00.632Z,1005.32
2019-05-03T09:16:58.351Z,1005.30
2019-05-03T09:17:58.445Z,1005.30
2019-05-03T09:18:58.346Z,1005.34
2019-05-03T09:19:58.536Z,1005.29
2019-05-03T09:20:58.235Z,1005.30
2019-05-03T09:21:58.359Z,1005.29
2019-05-03T09:22:58.194Z,1005.31
2019-05-03T09:23:58.297Z,1005.36
2019-05-03T09:24:58.177Z,1005.36
2019-05-03T09:25:58.308Z,1005.37
2019-05-03T09:26:58.128Z,1005.37
2019-05-03T09:27:58.096Z,1005.31
2019-05-03T09:28:57.990Z,1005.37
2019-05-03T09:29:58.080Z,1005.32
2019-05-03T09:30:57.949Z,1005.32
2019-05-03T09:31:58.002Z,1005.33
2019-05-03T09:32:57.866Z,1005.32
2019-05-03T09:33:57.919Z,1005.30
2019-05-03T09:34:57.841Z,1005.33
2019-05-03T09:35:57.950Z,1005.29
2019-05-03T09:36:57.753Z,1005.33
2019-05-03T09:37:57.839Z,1005.32
2019-05-03T09:38:57.705Z,1005.30
2019-05-03T09:39:57.764Z,1005.26
2019-05-03T09:40:57.646Z,1005.29
2019-05-03T09:41:57.719Z,1005.25
2019-05-03T09:42:57.587Z,1005.30
2019-05-03T09:44:35.065Z,1005.28
2019-05-03T09:44:57.515Z,1005.28
2019-05-03T09:45:57.510Z,1005.26
2019-05-03T09:58:00.190Z,1005.19
2019-05-03T09:59:15.267Z,1005.17
2019-05-03T10:00:00.085Z,1005.16
2019-05-03T10:01:00.392Z,1005.16
2019-05-03T10:01:58.082Z,1005.08
2019-05-03T10:03:00.427Z,1005.06
2019-05-03T10:03:58.027Z,1005.08
2019-05-03T10:05:12.776Z,1005.08
2019-05-03T10:05:57.964Z,1005.08
2019-05-03T10:06:59.014Z,1005.06
2019-05-03T10:07:57.932Z,1005.05
2019-05-03T10:08:58.020Z,1005.05
2019-05-03T10:09:57.877Z,1005.09
2019-05-03T10:10:58.023Z,1005.11
2019-05-03T10:11:57.846Z,1005.11
2019-05-03T10:13:57.743Z,1005.09
2019-05-03T10:14:59.800Z,1005.08
2019-05-03T10:15:57.692Z,1005.15
2019-05-03T10:16:57.795Z,1005.08
2019-05-03T10:17:57.618Z,1005.05
2019-05-03T10:18:57.828Z,1005.03
2019-05-03T10:19:57.606Z,1005.05
2019-05-03T10:20:57.537Z,1005.03
2019-05-03T10:21:57.523Z,1005.03
2019-05-03T10:22:57.479Z,1005.07
2019-05-03T10:23:57.458Z,1005.03
2019-05-03T10:24:57.411Z,1004.98
2019-05-03T10:25:57.396Z,1004.94
2019-05-03T10:26:57.519Z,1005.01
2019-05-03T10:27:57.330Z,1005.00
2019-05-03T10:28:57.288Z,1005.00
2019-05-03T10:30:09.666Z,1004.96
2019-05-03T10:30:57.266Z,1004.91
2019-05-03T10:31:57.336Z,1004.95
2019-05-03T10:32:57.168Z,1004.89
2019-05-03T10:33:58.461Z,1004.87
2019-05-03T10:34:57.129Z,1004.90
2019-05-03T10:35:57.213Z,1004.88
2019-05-03T10:36:57.068Z,1004.89
2019-05-03T10:37:57.052Z,1005.00
2019-05-03T10:38:57.151Z,1004.92
2019-05-03T10:39:56.975Z,1004.90
2019-05-03T10:40:57.121Z,1004.91
2019-05-03T10:41:56.931Z,1004.91
2019-05-03T10:42:56.886Z,1004.92
2019-05-03T10:43:56.890Z,1004.96
2019-05-03T10:44:56.987Z,1004.94
2019-05-03T10:45:56.771Z,1004.89
2019-05-03T10:46:56.752Z,1004.90
2019-05-03T10:47:56.753Z,1004.91
2019-05-03T10:48:56.749Z,1004.88
2019-05-03T10:49:56.696Z,1004.89
2019-05-03T10:50:56.672Z,1004.86
2019-05-03T10:51:56.598Z,1004.94
2019-05-03T10:52:56.587Z,1004.96
2019-05-03T10:53:56.577Z,1005.01
2019-05-03T10:54:56.526Z,1004.99
2019-05-03T10:55:56.490Z,1004.94
2019-05-03T10:56:56.506Z,1004.95
2019-05-03T10:57:56.439Z,1005.01
2019-05-03T10:58:56.406Z,1004.98
2019-05-03T10:59:56.599Z,1005.02
2019-05-03T11:00:56.798Z,1004.97
2019-05-03T11:01:58.363Z,1004.96
2019-05-03T11:02:56.265Z,1005.00
2019-05-03T11:04:05.334Z,1004.97
2019-05-03T11:04:56.252Z,1004.91
2019-05-03T11:05:57.279Z,1004.90
2019-05-03T11:06:56.167Z,1004.95
2019-05-03T11:07:58.228Z,1004.94
2019-05-03T11:08:56.125Z,1004.97
2019-05-03T11:09:58.112Z,1004.94
2019-05-03T11:10:56.043Z,1004.95
2019-05-03T11:11:57.137Z,1004.89
2019-05-03T11:12:55.966Z,1004.87
2019-05-03T11:13:57.015Z,1004.92
2019-05-03T11:14:55.927Z,1004.89
2019-05-03T11:15:56.116Z,1004.96
2019-05-03T11:16:55.878Z,1004.87
2019-05-03T11:17:56.928Z,1004.84
2019-05-03T11:18:55.791Z,1004.86
2019-05-03T11:19:55.961Z,1004.87
2019-05-03T11:20:55.743Z,1004.85
2019-05-03T11:21:56.737Z,1004.87
2019-05-03T11:22:55.673Z,1004.86
2019-05-03T11:23:56.755Z,1004.86
2019-05-03T11:24:55.628Z,1004.86
2019-05-03T11:25:56.661Z,1004.80
2019-05-03T11:26:55.934Z,1004.81
2019-05-03T11:28:02.309Z,1004.76
2019-05-03T11:29:00.375Z,1004.80
2019-05-03T11:29:55.681Z,1004.71
2019-05-03T11:31:01.812Z,1004.77
2019-05-03T11:31:55.484Z,1004.72
2019-05-03T11:32:55.731Z,1004.69
2019-05-03T11:34:03.227Z,1004.71
2019-05-03T11:34:55.497Z,1004.73
2019-05-03T11:35:56.318Z,1004.74
2019-05-03T11:36:55.270Z,1004.75
2019-05-03T11:37:55.298Z,1004.74
2019-05-03T11:38:55.848Z,1004.73
2019-05-03T11:39:55.816Z,1004.79
2019-05-03T11:40:56.003Z,1004.76
2019-05-03T11:42:04.657Z,1004.72
2019-05-03T11:42:55.387Z,1004.75
2019-05-03T11:43:56.161Z,1004.78
2019-05-03T11:44:55.097Z,1004.81
2019-05-03T11:45:55.543Z,1004.74
2019-05-03T11:46:55.163Z,1004.67
2019-05-03T11:47:55.133Z,1004.71
2019-05-03T11:48:54.991Z,1004.72
2019-05-03T11:49:54.880Z,1004.69
2019-05-03T11:50:54.898Z,1004.70
2019-05-03T11:51:55.612Z,1004.64
2019-05-03T11:52:55.425Z,1004.69
2019-05-03T11:53:54.805Z,1004.67
2019-05-03T11:54:56.854Z,1004.66
2019-05-03T11:55:55.146Z,1004.68
2019-05-03T11:56:55.618Z,1004.61
2019-05-03T11:57:56.624Z,1004.68
2019-05-03T11:58:55.054Z,1004.61
2019-05-03T11:59:54.870Z,1004.60
2019-05-03T12:01:10.833Z,1004.60
2019-05-03T12:01:55.319Z,1004.59
2019-05-03T12:07:38.542Z,1004.55
2019-05-03T12:08:25.353Z,1004.58
2019-05-03T12:09:31.833Z,1004.57
2019-05-03T12:10:36.080Z,1004.58
2019-05-03T12:11:24.999Z,1004.54
2019-05-03T12:12:24.953Z,1004.55
2019-05-03T12:13:25.001Z,1004.58
2019-05-03T12:14:24.894Z,1004.68
2019-05-03T12:15:24.910Z,1004.60
2019-05-03T12:16:59.885Z,1004.58
2019-05-03T12:17:29.199Z,1004.60
2019-05-03T12:18:25.466Z,1004.57
2019-05-03T12:19:30.161Z,1004.59
2019-05-03T12:20:28.172Z,1004.56
2019-05-03T12:21:27.396Z,1004.53
2019-05-03T12:22:26.221Z,1004.60
2019-05-03T12:23:25.815Z,1004.55
2019-05-03T12:24:26.701Z,1004.50
2019-05-03T12:25:26.277Z,1004.43
2019-05-03T12:26:25.888Z,1004.42
2019-05-03T12:27:24.526Z,1004.38
2019-05-03T12:28:25.714Z,1004.39
2019-05-03T12:29:24.617Z,1004.43
2019-05-03T12:30:27.148Z,1004.45
2019-05-03T12:31:36.178Z,1004.43
2019-05-03T12:32:25.100Z,1004.46
2019-05-03T12:33:26.032Z,1004.43
2019-05-03T12:34:25.596Z,1004.43
2019-05-03T12:35:24.743Z,1004.36
2019-05-03T12:36:24.790Z,1004.35
2019-05-03T12:37:25.673Z,1004.46
2019-05-03T12:38:25.564Z,1004.39
2019-05-03T12:39:29.986Z,1004.40
2019-05-03T12:40:25.527Z,1004.45
2019-05-03T12:41:25.460Z,1004.37
2019-05-03T12:42:25.595Z,1004.38
2019-05-03T12:43:25.627Z,1004.34
2019-05-03T12:44:25.138Z,1004.31
2019-05-03T12:45:24.777Z,1004.35
2019-05-03T12:46:26.055Z,1004.37
2019-05-03T12:47:25.173Z,1004.40
2019-05-03T12:48:24.626Z,1004.35
2019-05-03T12:49:24.928Z,1004.37
2019-05-03T12:50:25.162Z,1004.35
2019-05-03T12:51:25.152Z,1004.30
2019-05-03T12:52:26.316Z,1004.32
2019-05-03T12:53:24.886Z,1004.34